sensor_id;sensor_type;location;lat;lon;timestamp;temperature;humidity
23405;DHT22;11875;49.356;2.718;2022-08-01T00:00:30;24.10;95.10
23405;DHT22;11875;49.356;2.718;2022-08-01T00:02:56;24.20;95.10
23405;DHT22;11875;49.356;2.718;2022-08-01T00:05:21;24.10;95.20
23405;DHT22;11875;49.356;2.718;2022-08-01T00:07:47;24.10;95.20
23405;DHT22;11875;49.356;2.718;2022-08-01T00:10:14;24.10;95.20
23405;DHT22;11875;49.356;2.718;2022-08-01T00:12:41;24.10;95.20
23405;DHT22;11875;49.356;2.718;2022-08-01T00:15:10;24.10;95.20
23405;DHT22;11875;49.356;2.718;2022-08-01T00:17:36;24.10;95.30
23405;DHT22;11875;49.356;2.718;2022-08-01T00:20:05;24.00;95.30
23405;DHT22;11875;49.356;2.718;2022-08-01T00:22:33;24.10;95.40
23405;DHT22;11875;49.356;2.718;2022-08-01T00:24:58;24.00;95.60
23405;DHT22;11875;49.356;2.718;2022-08-01T00:27:24;24.00;95.80
23405;DHT22;11875;49.356;2.718;2022-08-01T00:29:50;24.10;95.80
23405;DHT22;11875;49.356;2.718;2022-08-01T00:32:15;24.10;96.20
23405;DHT22;11875;49.356;2.718;2022-08-01T00:34:41;24.00;95.90
23405;DHT22;11875;49.356;2.718;2022-08-01T00:37:06;24.10;96.00
23405;DHT22;11875;49.356;2.718;2022-08-01T00:39:32;24.00;96.00
23405;DHT22;11875;49.356;2.718;2022-08-01T00:41:59;24.10;96.10
23405;DHT22;11875;49.356;2.718;2022-08-01T00:44:24;24.00;96.20
23405;DHT22;11875;49.356;2.718;2022-08-01T00:46:50;23.90;96.70
23405;DHT22;11875;49.356;2.718;2022-08-01T00:49:16;24.00;96.40
23405;DHT22;11875;49.356;2.718;2022-08-01T00:51:42;23.90;96.40
23405;DHT22;11875;49.356;2.718;2022-08-01T00:54:07;23.90;96.40
23405;DHT22;11875;49.356;2.718;2022-08-01T00:56:33;24.00;96.50
23405;DHT22;11875;49.356;2.718;2022-08-01T00:58:59;23.90;96.50
23405;DHT22;11875;49.356;2.718;2022-08-01T01:01:25;24.00;96.60
23405;DHT22;11875;49.356;2.718;2022-08-01T01:03:52;23.90;96.50
23405;DHT22;11875;49.356;2.718;2022-08-01T01:09:34;24.00;96.50
23405;DHT22;11875;49.356;2.718;2022-08-01T01:17:52;23.80;96.80
23405;DHT22;11875;49.356;2.718;2022-08-01T01:20:21;23.70;96.90
23405;DHT22;11875;49.356;2.718;2022-08-01T01:26:52;23.70;97.10
23405;DHT22;11875;49.356;2.718;2022-08-01T01:31:59;23.80;97.00
23405;DHT22;11875;49.356;2.718;2022-08-01T01:34:28;23.80;97.00
23405;DHT22;11875;49.356;2.718;2022-08-01T01:36:54;23.80;97.00
23405;DHT22;11875;49.356;2.718;2022-08-01T01:39:22;23.80;96.90
23405;DHT22;11875;49.356;2.718;2022-08-01T01:41:49;23.80;96.90
23405;DHT22;11875;49.356;2.718;2022-08-01T01:44:16;23.80;97.00
23405;DHT22;11875;49.356;2.718;2022-08-01T01:46:42;23.70;97.10
23405;DHT22;11875;49.356;2.718;2022-08-01T01:49:09;23.80;97.10
23405;DHT22;11875;49.356;2.718;2022-08-01T01:51:37;23.70;97.20
23405;DHT22;11875;49.356;2.718;2022-08-01T01:54:04;23.70;97.20
23405;DHT22;11875;49.356;2.718;2022-08-01T01:56:31;23.80;97.10
23405;DHT22;11875;49.356;2.718;2022-08-01T01:59:00;23.70;97.20
23405;DHT22;11875;49.356;2.718;2022-08-01T02:01:31;23.80;97.20
23405;DHT22;11875;49.356;2.718;2022-08-01T02:03:58;23.60;97.20
23405;DHT22;11875;49.356;2.718;2022-08-01T02:06:25;23.60;97.30
23405;DHT22;11875;49.356;2.718;2022-08-01T02:08:53;23.60;97.40
23405;DHT22;11875;49.356;2.718;2022-08-01T02:11:22;23.60;97.30
23405;DHT22;11875;49.356;2.718;2022-08-01T02:13:54;23.70;97.60
23405;DHT22;11875;49.356;2.718;2022-08-01T02:16:24;23.70;97.50
23405;DHT22;11875;49.356;2.718;2022-08-01T02:18:50;23.80;97.60
23405;DHT22;11875;49.356;2.718;2022-08-01T02:21:20;23.70;97.70
23405;DHT22;11875;49.356;2.718;2022-08-01T02:23:49;23.70;97.90
23405;DHT22;11875;49.356;2.718;2022-08-01T02:26:18;23.70;97.90
23405;DHT22;11875;49.356;2.718;2022-08-01T02:28:57;23.70;98.00
23405;DHT22;11875;49.356;2.718;2022-08-01T02:31:24;23.80;98.00
23405;DHT22;11875;49.356;2.718;2022-08-01T02:34:03;23.70;98.00
23405;DHT22;11875;49.356;2.718;2022-08-01T02:36:33;23.70;98.10
23405;DHT22;11875;49.356;2.718;2022-08-01T02:39:02;23.70;98.10
23405;DHT22;11875;49.356;2.718;2022-08-01T02:41:30;23.70;98.10
23405;DHT22;11875;49.356;2.718;2022-08-01T02:44:01;23.80;98.20
23405;DHT22;11875;49.356;2.718;2022-08-01T02:46:52;23.80;98.20
23405;DHT22;11875;49.356;2.718;2022-08-01T02:49:20;23.80;98.10
23405;DHT22;11875;49.356;2.718;2022-08-01T02:51:48;23.80;98.20
23405;DHT22;11875;49.356;2.718;2022-08-01T02:54:17;23.80;98.30
23405;DHT22;11875;49.356;2.718;2022-08-01T02:56:44;23.80;98.30
23405;DHT22;11875;49.356;2.718;2022-08-01T02:59:16;23.80;98.30
23405;DHT22;11875;49.356;2.718;2022-08-01T03:01:44;23.80;98.40
23405;DHT22;11875;49.356;2.718;2022-08-01T03:04:11;23.80;98.40
23405;DHT22;11875;49.356;2.718;2022-08-01T03:06:38;23.70;98.40
23405;DHT22;11875;49.356;2.718;2022-08-01T03:09:06;23.70;98.90
23405;DHT22;11875;49.356;2.718;2022-08-01T03:11:33;23.70;98.70
23405;DHT22;11875;49.356;2.718;2022-08-01T03:14:02;23.60;98.80
23405;DHT22;11875;49.356;2.718;2022-08-01T03:16:31;23.60;98.90
23405;DHT22;11875;49.356;2.718;2022-08-01T03:19:00;23.60;99.00
23405;DHT22;11875;49.356;2.718;2022-08-01T03:21:28;23.60;99.00
23405;DHT22;11875;49.356;2.718;2022-08-01T03:23:57;23.60;99.00
23405;DHT22;11875;49.356;2.718;2022-08-01T03:26:28;23.50;99.00
23405;DHT22;11875;49.356;2.718;2022-08-01T03:28:57;23.50;99.30
23405;DHT22;11875;49.356;2.718;2022-08-01T03:31:25;23.50;99.30
23405;DHT22;11875;49.356;2.718;2022-08-01T03:33:50;23.50;99.40
23405;DHT22;11875;49.356;2.718;2022-08-01T03:36:21;23.50;99.50
23405;DHT22;11875;49.356;2.718;2022-08-01T03:38:48;23.50;99.40
23405;DHT22;11875;49.356;2.718;2022-08-01T03:41:19;23.50;99.40
23405;DHT22;11875;49.356;2.718;2022-08-01T03:43:57;23.50;99.40
23405;DHT22;11875;49.356;2.718;2022-08-01T03:46:38;23.50;99.70
23405;DHT22;11875;49.356;2.718;2022-08-01T03:49:14;23.50;99.80
23405;DHT22;11875;49.356;2.718;2022-08-01T03:51:44;23.50;99.60
23405;DHT22;11875;49.356;2.718;2022-08-01T03:54:11;23.50;99.60
23405;DHT22;11875;49.356;2.718;2022-08-01T03:56:38;23.40;99.70
23405;DHT22;11875;49.356;2.718;2022-08-01T03:59:07;23.30;99.90
23405;DHT22;11875;49.356;2.718;2022-08-01T04:01:34;23.40;99.90
23405;DHT22;11875;49.356;2.718;2022-08-01T04:04:01;23.40;99.90
23405;DHT22;11875;49.356;2.718;2022-08-01T04:06:27;23.40;99.90
23405;DHT22;11875;49.356;2.718;2022-08-01T04:08:53;23.40;99.90
23405;DHT22;11875;49.356;2.718;2022-08-01T04:11:24;23.40;99.90
23405;DHT22;11875;49.356;2.718;2022-08-01T04:13:51;23.40;99.90
23405;DHT22;11875;49.356;2.718;2022-08-01T04:16:18;23.40;99.90
23405;DHT22;11875;49.356;2.718;2022-08-01T04:18:44;23.50;99.90
23405;DHT22;11875;49.356;2.718;2022-08-01T04:21:10;23.50;99.90
23405;DHT22;11875;49.356;2.718;2022-08-01T04:23:36;23.50;99.90
23405;DHT22;11875;49.356;2.718;2022-08-01T04:26:04;23.50;99.90
23405;DHT22;11875;49.356;2.718;2022-08-01T04:28:34;23.50;99.90
23405;DHT22;11875;49.356;2.718;2022-08-01T04:31:02;23.50;99.80
23405;DHT22;11875;49.356;2.718;2022-08-01T04:33:30;23.50;99.80
23405;DHT22;11875;49.356;2.718;2022-08-01T04:35:58;23.60;99.80
23405;DHT22;11875;49.356;2.718;2022-08-01T04:38:26;23.50;99.70
23405;DHT22;11875;49.356;2.718;2022-08-01T04:40:54;23.50;99.80
23405;DHT22;11875;49.356;2.718;2022-08-01T04:43:20;23.50;99.80
23405;DHT22;11875;49.356;2.718;2022-08-01T04:45:47;23.50;99.90
23405;DHT22;11875;49.356;2.718;2022-08-01T04:48:16;23.50;99.90
23405;DHT22;11875;49.356;2.718;2022-08-01T04:50:42;23.40;99.90
23405;DHT22;11875;49.356;2.718;2022-08-01T04:53:18;23.40;99.90
23405;DHT22;11875;49.356;2.718;2022-08-01T04:55:45;23.40;99.90
23405;DHT22;11875;49.356;2.718;2022-08-01T04:58:11;23.50;99.90
23405;DHT22;11875;49.356;2.718;2022-08-01T05:00:37;23.50;99.90
23405;DHT22;11875;49.356;2.718;2022-08-01T05:03:03;23.40;99.90
23405;DHT22;11875;49.356;2.718;2022-08-01T05:05:29;23.40;99.90
23405;DHT22;11875;49.356;2.718;2022-08-01T05:07:56;23.50;99.90
23405;DHT22;11875;49.356;2.718;2022-08-01T05:10:21;23.40;99.90
23405;DHT22;11875;49.356;2.718;2022-08-01T05:12:47;23.50;99.90
23405;DHT22;11875;49.356;2.718;2022-08-01T05:15:13;23.50;99.90
23405;DHT22;11875;49.356;2.718;2022-08-01T05:17:38;23.50;99.90
23405;DHT22;11875;49.356;2.718;2022-08-01T05:20:04;23.40;99.90
23405;DHT22;11875;49.356;2.718;2022-08-01T05:22:31;23.30;99.90
23405;DHT22;11875;49.356;2.718;2022-08-01T05:24:57;23.20;99.90
23405;DHT22;11875;49.356;2.718;2022-08-01T05:27:25;23.20;99.90
23405;DHT22;11875;49.356;2.718;2022-08-01T05:29:51;23.20;99.90
23405;DHT22;11875;49.356;2.718;2022-08-01T05:32:16;23.20;99.90
23405;DHT22;11875;49.356;2.718;2022-08-01T05:34:42;23.20;99.90
23405;DHT22;11875;49.356;2.718;2022-08-01T05:37:08;23.30;99.90
23405;DHT22;11875;49.356;2.718;2022-08-01T05:39:33;23.30;99.90
23405;DHT22;11875;49.356;2.718;2022-08-01T05:41:59;23.40;99.90
23405;DHT22;11875;49.356;2.718;2022-08-01T05:44:25;23.40;99.90
23405;DHT22;11875;49.356;2.718;2022-08-01T05:46:51;23.40;99.90
23405;DHT22;11875;49.356;2.718;2022-08-01T05:49:16;23.50;99.90
23405;DHT22;11875;49.356;2.718;2022-08-01T05:51:42;23.50;99.90
23405;DHT22;11875;49.356;2.718;2022-08-01T05:54:08;23.50;99.90
23405;DHT22;11875;49.356;2.718;2022-08-01T05:56:33;23.30;99.90
23405;DHT22;11875;49.356;2.718;2022-08-01T05:58:59;23.20;99.90
23405;DHT22;11875;49.356;2.718;2022-08-01T06:01:25;23.30;99.90
23405;DHT22;11875;49.356;2.718;2022-08-01T06:03:51;23.30;99.90
23405;DHT22;11875;49.356;2.718;2022-08-01T06:06:17;23.40;99.90
23405;DHT22;11875;49.356;2.718;2022-08-01T06:08:43;23.60;99.90
23405;DHT22;11875;49.356;2.718;2022-08-01T06:11:09;23.60;99.90
23405;DHT22;11875;49.356;2.718;2022-08-01T06:13:34;23.60;99.90
23405;DHT22;11875;49.356;2.718;2022-08-01T06:16:00;23.60;99.90
23405;DHT22;11875;49.356;2.718;2022-08-01T06:18:26;23.50;99.90
23405;DHT22;11875;49.356;2.718;2022-08-01T06:20:51;23.50;99.90
23405;DHT22;11875;49.356;2.718;2022-08-01T06:23:17;23.50;99.90
23405;DHT22;11875;49.356;2.718;2022-08-01T06:25:43;23.30;99.90
23405;DHT22;11875;49.356;2.718;2022-08-01T06:28:09;23.30;99.90
23405;DHT22;11875;49.356;2.718;2022-08-01T06:30:35;23.50;99.90
23405;DHT22;11875;49.356;2.718;2022-08-01T06:33:01;23.50;99.70
23405;DHT22;11875;49.356;2.718;2022-08-01T06:35:28;23.60;99.50
23405;DHT22;11875;49.356;2.718;2022-08-01T06:37:55;23.60;99.40
23405;DHT22;11875;49.356;2.718;2022-08-01T06:40:21;23.60;99.40
23405;DHT22;11875;49.356;2.718;2022-08-01T06:42:47;23.60;99.40
23405;DHT22;11875;49.356;2.718;2022-08-01T06:45:13;23.70;99.30
23405;DHT22;11875;49.356;2.718;2022-08-01T06:47:40;23.80;99.10
23405;DHT22;11875;49.356;2.718;2022-08-01T06:50:07;23.80;99.20
23405;DHT22;11875;49.356;2.718;2022-08-01T06:52:34;23.70;99.30
23405;DHT22;11875;49.356;2.718;2022-08-01T06:55:00;23.80;99.30
23405;DHT22;11875;49.356;2.718;2022-08-01T06:57:26;23.70;99.40
23405;DHT22;11875;49.356;2.718;2022-08-01T06:59:52;23.60;99.60
23405;DHT22;11875;49.356;2.718;2022-08-01T07:02:18;23.70;99.50
23405;DHT22;11875;49.356;2.718;2022-08-01T07:04:43;23.70;99.40
23405;DHT22;11875;49.356;2.718;2022-08-01T07:07:09;23.70;99.40
23405;DHT22;11875;49.356;2.718;2022-08-01T07:09:35;23.70;99.50
23405;DHT22;11875;49.356;2.718;2022-08-01T07:12:00;23.80;99.20
23405;DHT22;11875;49.356;2.718;2022-08-01T07:14:26;23.90;99.30
23405;DHT22;11875;49.356;2.718;2022-08-01T07:16:52;24.00;99.30
23405;DHT22;11875;49.356;2.718;2022-08-01T07:19:18;24.00;99.30
23405;DHT22;11875;49.356;2.718;2022-08-01T07:21:44;24.00;99.00
23405;DHT22;11875;49.356;2.718;2022-08-01T07:24:12;24.00;99.10
23405;DHT22;11875;49.356;2.718;2022-08-01T07:26:45;23.90;99.20
23405;DHT22;11875;49.356;2.718;2022-08-01T07:29:11;23.90;99.20
23405;DHT22;11875;49.356;2.718;2022-08-01T07:31:37;24.00;99.10
23405;DHT22;11875;49.356;2.718;2022-08-01T07:34:08;24.00;98.50
23405;DHT22;11875;49.356;2.718;2022-08-01T07:36:34;24.00;98.30
23405;DHT22;11875;49.356;2.718;2022-08-01T07:39:00;24.10;98.50
23405;DHT22;11875;49.356;2.718;2022-08-01T07:41:25;24.10;98.40
23405;DHT22;11875;49.356;2.718;2022-08-01T07:43:51;24.20;99.10
23405;DHT22;11875;49.356;2.718;2022-08-01T07:46:17;24.20;98.80
23405;DHT22;11875;49.356;2.718;2022-08-01T07:48:43;24.30;98.80
23405;DHT22;11875;49.356;2.718;2022-08-01T07:51:10;24.40;98.60
23405;DHT22;11875;49.356;2.718;2022-08-01T07:53:36;24.40;98.30
23405;DHT22;11875;49.356;2.718;2022-08-01T07:56:02;24.30;98.40
23405;DHT22;11875;49.356;2.718;2022-08-01T07:58:30;24.30;98.60
23405;DHT22;11875;49.356;2.718;2022-08-01T08:00:55;24.40;98.30
23405;DHT22;11875;49.356;2.718;2022-08-01T08:03:21;24.50;98.20
23405;DHT22;11875;49.356;2.718;2022-08-01T08:05:46;24.50;98.00
23405;DHT22;11875;49.356;2.718;2022-08-01T08:08:12;24.40;98.00
23405;DHT22;11875;49.356;2.718;2022-08-01T08:10:39;24.20;98.20
23405;DHT22;11875;49.356;2.718;2022-08-01T08:13:05;24.20;98.40
23405;DHT22;11875;49.356;2.718;2022-08-01T08:15:30;24.40;98.40
23405;DHT22;11875;49.356;2.718;2022-08-01T08:17:56;24.30;98.30
23405;DHT22;11875;49.356;2.718;2022-08-01T08:20:22;24.30;98.40
23405;DHT22;11875;49.356;2.718;2022-08-01T08:22:51;24.30;98.50
23405;DHT22;11875;49.356;2.718;2022-08-01T08:25:16;24.40;98.70
23405;DHT22;11875;49.356;2.718;2022-08-01T08:27:44;24.50;98.90
23405;DHT22;11875;49.356;2.718;2022-08-01T08:30:10;24.60;98.40
23405;DHT22;11875;49.356;2.718;2022-08-01T08:32:37;24.50;98.50
23405;DHT22;11875;49.356;2.718;2022-08-01T08:35:03;24.50;98.60
23405;DHT22;11875;49.356;2.718;2022-08-01T08:37:29;24.60;98.80
23405;DHT22;11875;49.356;2.718;2022-08-01T08:39:55;24.70;98.60
23405;DHT22;11875;49.356;2.718;2022-08-01T08:42:21;24.90;98.40
23405;DHT22;11875;49.356;2.718;2022-08-01T08:44:47;25.10;98.10
23405;DHT22;11875;49.356;2.718;2022-08-01T08:47:14;25.20;97.80
23405;DHT22;11875;49.356;2.718;2022-08-01T08:49:43;25.40;97.90
23405;DHT22;11875;49.356;2.718;2022-08-01T08:52:10;25.60;97.70
23405;DHT22;11875;49.356;2.718;2022-08-01T08:54:37;25.80;97.30
23405;DHT22;11875;49.356;2.718;2022-08-01T08:57:04;25.90;97.00
23405;DHT22;11875;49.356;2.718;2022-08-01T08:59:31;25.90;97.10
23405;DHT22;11875;49.356;2.718;2022-08-01T09:01:57;26.00;96.80
23405;DHT22;11875;49.356;2.718;2022-08-01T09:04:25;26.00;96.70
23405;DHT22;11875;49.356;2.718;2022-08-01T09:06:52;26.10;96.60
23405;DHT22;11875;49.356;2.718;2022-08-01T09:09:17;26.00;96.40
23405;DHT22;11875;49.356;2.718;2022-08-01T09:11:43;26.00;96.30
23405;DHT22;11875;49.356;2.718;2022-08-01T09:14:19;25.80;96.40
23405;DHT22;11875;49.356;2.718;2022-08-01T09:19:25;25.70;96.40
23405;DHT22;11875;49.356;2.718;2022-08-01T09:22:01;25.60;96.60
23405;DHT22;11875;49.356;2.718;2022-08-01T09:24:28;25.50;96.60
23405;DHT22;11875;49.356;2.718;2022-08-01T09:26:54;25.30;96.80
23405;DHT22;11875;49.356;2.718;2022-08-01T09:29:23;25.30;97.00
23405;DHT22;11875;49.356;2.718;2022-08-01T09:31:49;25.20;97.10
23405;DHT22;11875;49.356;2.718;2022-08-01T09:34:16;25.20;96.90
23405;DHT22;11875;49.356;2.718;2022-08-01T09:36:50;25.20;96.90
23405;DHT22;11875;49.356;2.718;2022-08-01T09:39:18;25.30;96.90
23405;DHT22;11875;49.356;2.718;2022-08-01T09:41:45;25.40;96.90
23405;DHT22;11875;49.356;2.718;2022-08-01T09:44:11;25.40;96.80
23405;DHT22;11875;49.356;2.718;2022-08-01T09:46:54;25.30;96.70
23405;DHT22;11875;49.356;2.718;2022-08-01T09:49:31;25.40;96.80
23405;DHT22;11875;49.356;2.718;2022-08-01T09:51:59;25.50;96.60
23405;DHT22;11875;49.356;2.718;2022-08-01T09:54:34;25.50;96.60
23405;DHT22;11875;49.356;2.718;2022-08-01T09:57:16;25.30;96.70
23405;DHT22;11875;49.356;2.718;2022-08-01T09:59:44;25.40;96.60
23405;DHT22;11875;49.356;2.718;2022-08-01T10:02:14;25.40;96.60
23405;DHT22;11875;49.356;2.718;2022-08-01T10:04:51;25.30;96.60
23405;DHT22;11875;49.356;2.718;2022-08-01T10:07:17;25.40;96.70
23405;DHT22;11875;49.356;2.718;2022-08-01T10:09:44;25.50;96.70
23405;DHT22;11875;49.356;2.718;2022-08-01T10:12:15;25.50;96.70
23405;DHT22;11875;49.356;2.718;2022-08-01T10:14:46;25.50;96.70
23405;DHT22;11875;49.356;2.718;2022-08-01T10:17:14;25.50;96.60
23405;DHT22;11875;49.356;2.718;2022-08-01T10:19:42;25.60;96.30
23405;DHT22;11875;49.356;2.718;2022-08-01T10:22:11;25.70;96.20
23405;DHT22;11875;49.356;2.718;2022-08-01T10:24:39;25.60;96.20
23405;DHT22;11875;49.356;2.718;2022-08-01T10:27:10;25.50;96.20
23405;DHT22;11875;49.356;2.718;2022-08-01T10:29:42;25.40;96.10
23405;DHT22;11875;49.356;2.718;2022-08-01T10:32:09;25.40;96.20
23405;DHT22;11875;49.356;2.718;2022-08-01T10:34:37;25.40;96.40
23405;DHT22;11875;49.356;2.718;2022-08-01T10:37:06;25.50;96.40
23405;DHT22;11875;49.356;2.718;2022-08-01T10:39:33;25.70;96.10
23405;DHT22;11875;49.356;2.718;2022-08-01T10:42:00;25.80;96.10
23405;DHT22;11875;49.356;2.718;2022-08-01T10:44:28;25.90;95.90
23405;DHT22;11875;49.356;2.718;2022-08-01T10:47:01;25.90;96.50
23405;DHT22;11875;49.356;2.718;2022-08-01T10:49:30;25.90;96.40
23405;DHT22;11875;49.356;2.718;2022-08-01T10:51:56;25.80;96.50
23405;DHT22;11875;49.356;2.718;2022-08-01T10:54:25;25.70;96.60
23405;DHT22;11875;49.356;2.718;2022-08-01T10:56:52;25.80;96.30
23405;DHT22;11875;49.356;2.718;2022-08-01T10:59:26;25.80;96.20
23405;DHT22;11875;49.356;2.718;2022-08-01T11:02:02;25.70;96.20
23405;DHT22;11875;49.356;2.718;2022-08-01T11:07:18;25.70;96.30
23405;DHT22;11875;49.356;2.718;2022-08-01T11:09:47;25.90;96.50
23405;DHT22;11875;49.356;2.718;2022-08-01T11:12:17;26.00;96.40
23405;DHT22;11875;49.356;2.718;2022-08-01T11:17:44;25.80;96.40
23405;DHT22;11875;49.356;2.718;2022-08-01T11:20:18;25.90;96.30
23405;DHT22;11875;49.356;2.718;2022-08-01T11:38:46;27.30;94.60
23405;DHT22;11875;49.356;2.718;2022-08-01T11:41:23;27.50;94.60
23405;DHT22;11875;49.356;2.718;2022-08-01T11:43:56;27.80;94.20
23405;DHT22;11875;49.356;2.718;2022-08-01T11:52:28;27.90;93.70
23405;DHT22;11875;49.356;2.718;2022-08-01T11:55:05;28.20;93.20
23405;DHT22;11875;49.356;2.718;2022-08-01T11:57:32;28.50;93.00
23405;DHT22;11875;49.356;2.718;2022-08-01T12:00:13;28.70;92.40
23405;DHT22;11875;49.356;2.718;2022-08-01T12:02:39;28.70;92.30
23405;DHT22;11875;49.356;2.718;2022-08-01T12:05:10;28.70;91.90
23405;DHT22;11875;49.356;2.718;2022-08-01T12:07:38;28.70;91.80
23405;DHT22;11875;49.356;2.718;2022-08-01T12:12:33;28.70;91.60
23405;DHT22;11875;49.356;2.718;2022-08-01T12:15:04;28.70;91.90
23405;DHT22;11875;49.356;2.718;2022-08-01T12:17:46;28.60;91.60
23405;DHT22;11875;49.356;2.718;2022-08-01T12:20:19;28.50;91.90
23405;DHT22;11875;49.356;2.718;2022-08-01T12:22:45;28.70;92.00
23405;DHT22;11875;49.356;2.718;2022-08-01T12:25:15;28.80;92.10
23405;DHT22;11875;49.356;2.718;2022-08-01T12:27:43;28.90;91.90
23405;DHT22;11875;49.356;2.718;2022-08-01T12:30:11;29.00;91.60
23405;DHT22;11875;49.356;2.718;2022-08-01T12:32:39;28.80;91.70
23405;DHT22;11875;49.356;2.718;2022-08-01T12:35:12;28.80;91.70
23405;DHT22;11875;49.356;2.718;2022-08-01T12:37:44;28.90;91.40
23405;DHT22;11875;49.356;2.718;2022-08-01T12:40:13;29.00;91.10
23405;DHT22;11875;49.356;2.718;2022-08-01T12:42:45;29.00;91.10
23405;DHT22;11875;49.356;2.718;2022-08-01T12:45:35;28.90;91.30
23405;DHT22;11875;49.356;2.718;2022-08-01T12:48:00;29.10;91.20
23405;DHT22;11875;49.356;2.718;2022-08-01T12:50:29;29.30;91.00
23405;DHT22;11875;49.356;2.718;2022-08-01T12:52:56;29.20;90.90
23405;DHT22;11875;49.356;2.718;2022-08-01T12:55:24;29.00;91.00
23405;DHT22;11875;49.356;2.718;2022-08-01T12:58:29;28.90;91.40
23405;DHT22;11875;49.356;2.718;2022-08-01T13:00:45;28.90;91.40
23405;DHT22;11875;49.356;2.718;2022-08-01T13:03:17;29.00;91.00
23405;DHT22;11875;49.356;2.718;2022-08-01T13:05:56;29.00;91.10
23405;DHT22;11875;49.356;2.718;2022-08-01T13:08:32;29.20;91.00
23405;DHT22;11875;49.356;2.718;2022-08-01T13:11:05;29.30;90.80
23405;DHT22;11875;49.356;2.718;2022-08-01T13:16:08;28.50;90.90
23405;DHT22;11875;49.356;2.718;2022-08-01T13:18:35;28.30;91.50
23405;DHT22;11875;49.356;2.718;2022-08-01T13:21:14;28.30;91.00
23405;DHT22;11875;49.356;2.718;2022-08-01T13:24:04;28.50;90.80
23405;DHT22;11875;49.356;2.718;2022-08-01T13:26:44;28.70;90.30
23405;DHT22;11875;49.356;2.718;2022-08-01T13:29:21;28.90;90.10
23405;DHT22;11875;49.356;2.718;2022-08-01T13:31:48;29.00;90.00
23405;DHT22;11875;49.356;2.718;2022-08-01T13:34:14;28.90;89.60
23405;DHT22;11875;49.356;2.718;2022-08-01T13:36:41;28.90;89.60
23405;DHT22;11875;49.356;2.718;2022-08-01T13:39:07;28.90;90.40
23405;DHT22;11875;49.356;2.718;2022-08-01T13:41:52;28.90;90.60
23405;DHT22;11875;49.356;2.718;2022-08-01T13:44:17;28.90;90.80
23405;DHT22;11875;49.356;2.718;2022-08-01T13:46:44;28.80;91.00
23405;DHT22;11875;49.356;2.718;2022-08-01T13:49:10;28.80;91.20
23405;DHT22;11875;49.356;2.718;2022-08-01T13:51:37;28.60;91.20
23405;DHT22;11875;49.356;2.718;2022-08-01T13:54:04;28.50;91.40
23405;DHT22;11875;49.356;2.718;2022-08-01T13:56:30;28.20;91.70
23405;DHT22;11875;49.356;2.718;2022-08-01T13:58:56;28.20;91.80
23405;DHT22;11875;49.356;2.718;2022-08-01T14:01:22;28.30;91.90
23405;DHT22;11875;49.356;2.718;2022-08-01T14:03:48;28.20;91.80
23405;DHT22;11875;49.356;2.718;2022-08-01T14:06:15;28.10;91.90
23405;DHT22;11875;49.356;2.718;2022-08-01T14:08:42;27.70;92.00
23405;DHT22;11875;49.356;2.718;2022-08-01T14:11:08;27.70;92.30
23405;DHT22;11875;49.356;2.718;2022-08-01T14:13:34;27.70;92.20
23405;DHT22;11875;49.356;2.718;2022-08-01T14:16:02;27.80;92.10
23405;DHT22;11875;49.356;2.718;2022-08-01T14:18:28;28.00;91.90
23405;DHT22;11875;49.356;2.718;2022-08-01T14:20:53;28.20;91.70
23405;DHT22;11875;49.356;2.718;2022-08-01T14:23:19;28.50;91.70
23405;DHT22;11875;49.356;2.718;2022-08-01T14:25:44;28.70;91.60
23405;DHT22;11875;49.356;2.718;2022-08-01T14:28:10;29.00;91.30
23405;DHT22;11875;49.356;2.718;2022-08-01T14:30:36;29.10;90.50
23405;DHT22;11875;49.356;2.718;2022-08-01T14:33:02;29.10;90.50
23405;DHT22;11875;49.356;2.718;2022-08-01T14:35:27;29.20;90.30
23405;DHT22;11875;49.356;2.718;2022-08-01T14:37:53;29.50;90.50
23405;DHT22;11875;49.356;2.718;2022-08-01T14:40:19;29.70;90.10
23405;DHT22;11875;49.356;2.718;2022-08-01T14:42:44;29.90;89.60
23405;DHT22;11875;49.356;2.718;2022-08-01T14:45:11;30.10;88.90
23405;DHT22;11875;49.356;2.718;2022-08-01T14:47:38;30.10;88.20
23405;DHT22;11875;49.356;2.718;2022-08-01T14:50:06;30.10;88.50
23405;DHT22;11875;49.356;2.718;2022-08-01T14:52:33;29.90;88.10
23405;DHT22;11875;49.356;2.718;2022-08-01T14:54:59;29.90;86.70
23405;DHT22;11875;49.356;2.718;2022-08-01T14:57:25;29.90;86.50
23405;DHT22;11875;49.356;2.718;2022-08-01T14:59:50;29.70;87.00
23405;DHT22;11875;49.356;2.718;2022-08-01T15:02:16;29.60;87.70
23405;DHT22;11875;49.356;2.718;2022-08-01T15:04:46;29.50;87.30
23405;DHT22;11875;49.356;2.718;2022-08-01T15:07:12;29.40;87.60
23405;DHT22;11875;49.356;2.718;2022-08-01T15:09:37;29.30;87.90
23405;DHT22;11875;49.356;2.718;2022-08-01T15:12:03;29.30;87.90
23405;DHT22;11875;49.356;2.718;2022-08-01T15:14:29;29.40;87.70
23405;DHT22;11875;49.356;2.718;2022-08-01T15:17:17;29.50;87.70
23405;DHT22;11875;49.356;2.718;2022-08-01T15:19:48;29.60;87.90
23405;DHT22;11875;49.356;2.718;2022-08-01T15:22:14;29.40;87.30
23405;DHT22;11875;49.356;2.718;2022-08-01T15:24:40;29.30;87.70
23405;DHT22;11875;49.356;2.718;2022-08-01T15:27:07;29.30;88.10
23405;DHT22;11875;49.356;2.718;2022-08-01T15:29:33;29.30;88.30
23405;DHT22;11875;49.356;2.718;2022-08-01T15:32:03;29.30;88.30
23405;DHT22;11875;49.356;2.718;2022-08-01T15:34:31;29.30;88.20
23405;DHT22;11875;49.356;2.718;2022-08-01T15:36:57;29.20;90.10
23405;DHT22;11875;49.356;2.718;2022-08-01T15:39:23;28.90;90.10
23405;DHT22;11875;49.356;2.718;2022-08-01T15:41:48;28.60;90.10
23405;DHT22;11875;49.356;2.718;2022-08-01T15:44:15;28.40;90.70
23405;DHT22;11875;49.356;2.718;2022-08-01T15:46:43;28.50;91.60
23405;DHT22;11875;49.356;2.718;2022-08-01T15:49:09;28.60;92.50
23405;DHT22;11875;49.356;2.718;2022-08-01T15:51:35;28.70;93.00
23405;DHT22;11875;49.356;2.718;2022-08-01T15:54:02;28.70;93.60
23405;DHT22;11875;49.356;2.718;2022-08-01T15:56:31;28.70;93.80
23405;DHT22;11875;49.356;2.718;2022-08-01T15:58:57;28.80;94.20
23405;DHT22;11875;49.356;2.718;2022-08-01T16:01:22;28.90;94.80
23405;DHT22;11875;49.356;2.718;2022-08-01T16:03:48;28.90;94.60
23405;DHT22;11875;49.356;2.718;2022-08-01T16:06:14;29.10;92.90
23405;DHT22;11875;49.356;2.718;2022-08-01T16:08:40;29.00;91.50
23405;DHT22;11875;49.356;2.718;2022-08-01T16:11:05;29.10;90.80
23405;DHT22;11875;49.356;2.718;2022-08-01T16:13:31;29.10;90.70
23405;DHT22;11875;49.356;2.718;2022-08-01T16:15:57;29.30;90.80
23405;DHT22;11875;49.356;2.718;2022-08-01T16:18:24;29.30;90.60
23405;DHT22;11875;49.356;2.718;2022-08-01T16:20:49;29.20;89.80
23405;DHT22;11875;49.356;2.718;2022-08-01T16:23:15;29.20;89.60
23405;DHT22;11875;49.356;2.718;2022-08-01T16:25:41;29.20;88.60